Terminal Aerodrome Forecast
Issued by NWS Corpus Christi, TX

Home | Current Version | Previous Version | Text Only | Print | Product List | Glossary On
Versions: 1 2 3 4 5 6 7 8 9 10 11 12 13 14 15 16 17 18 19 20 21 22 23 24 25
000
FTUS44 KCRP 270533
TAFCRP
TAF
KCRP 270533Z 2706/2806 15020G28KT P6SM SCT012 BKN020
      TEMPO 2706/2709 BKN015 OVC020
     FM270900 14012G18KT P6SM BKN015
     FM271500 17015G20KT P6SM BKN025 PROB30 2718/2720 VRB15G25KT 5SM
      TSRA OVC020CB
     FM272000 15018G28KT P6SM SCT040 BKN250
     FM280400 15012KT P6SM SCT025 BKN250=

USA.gov is the U.S. government's official web portal to all federal, state and local government web resources and services.